createdAt,value
2017-09-24T00:00:32.817Z,100976.69
2017-09-24T00:03:00.285Z,100975.34
2017-09-24T00:05:27.739Z,100975.17
2017-09-24T00:07:55.209Z,100974.17
2017-09-24T00:10:22.663Z,100974.72
2017-09-24T00:12:50.157Z,100970.78
2017-09-24T00:15:17.641Z,100966.83
2017-09-24T00:17:45.119Z,100969.89
2017-09-24T00:20:12.662Z,100968.19
2017-09-24T00:22:40.142Z,100965.55
2017-09-24T00:25:07.635Z,100961.93
2017-09-24T00:27:35.115Z,100962.66
2017-09-24T00:30:02.559Z,100964.33
2017-09-24T00:32:30.039Z,100965.66
2017-09-24T00:34:57.495Z,100963.00
2017-09-24T00:37:24.968Z,100970.50
2017-09-24T00:39:52.464Z,100971.20
2017-09-24T00:42:19.932Z,100965.55
2017-09-24T00:44:47.366Z,100966.11
2017-09-24T00:47:14.886Z,100966.22
2017-09-24T00:49:42.369Z,100965.20
2017-09-24T00:52:09.912Z,100959.16
2017-09-24T00:54:37.379Z,100956.95
2017-09-24T00:57:04.839Z,100958.45
2017-09-24T00:59:32.396Z,100959.42
2017-09-24T01:01:59.858Z,100958.42
2017-09-24T01:04:27.407Z,100961.56
2017-09-24T01:06:54.857Z,100963.80
2017-09-24T01:09:22.327Z,100967.77
2017-09-24T01:11:49.785Z,100962.45
2017-09-24T01:14:17.263Z,100962.66
2017-09-24T01:16:44.716Z,100964.94
2017-09-24T01:19:12.200Z,100962.23
2017-09-24T01:21:39.700Z,100956.48
2017-09-24T01:24:07.178Z,100959.14
2017-09-24T01:26:34.638Z,100961.35
2017-09-24T01:29:02.114Z,100963.99
2017-09-24T01:31:29.580Z,100961.98
2017-09-24T01:33:57.059Z,100967.69
2017-09-24T01:36:24.540Z,100964.74
2017-09-24T01:38:52.023Z,100961.94
2017-09-24T01:41:19.475Z,100964.64
2017-09-24T01:43:46.968Z,100963.48
2017-09-24T01:46:14.475Z,100963.13
2017-09-24T01:48:41.965Z,100956.25
2017-09-24T01:51:09.467Z,100957.87
2017-09-24T01:53:36.919Z,100966.38
2017-09-24T01:56:04.392Z,100961.18
2017-09-24T01:58:31.843Z,100957.50
2017-09-24T02:00:59.336Z,100957.47
2017-09-24T02:03:26.873Z,100954.70
2017-09-24T02:05:54.352Z,100955.45
2017-09-24T02:08:21.891Z,100950.27
2017-09-24T02:10:49.373Z,100955.44
2017-09-24T02:13:16.836Z,100957.75
2017-09-24T02:15:45.994Z,100958.28
2017-09-24T02:18:13.464Z,100965.06
2017-09-24T02:20:40.940Z,100962.29
2017-09-24T02:23:08.401Z,100963.92
2017-09-24T02:25:35.924Z,100969.06
2017-09-24T02:28:03.383Z,100966.98
2017-09-24T02:30:30.856Z,100972.62
2017-09-24T02:32:58.312Z,100974.05
2017-09-24T02:35:25.783Z,100970.39
2017-09-24T02:37:53.237Z,100965.71
2017-09-24T02:40:20.718Z,100973.66
2017-09-24T02:42:48.222Z,100967.42
2017-09-24T02:45:15.704Z,100970.04
2017-09-24T02:47:43.172Z,100967.88
2017-09-24T02:50:10.624Z,100979.81
2017-09-24T02:52:38.128Z,100975.27
2017-09-24T02:55:05.601Z,100973.59
2017-09-24T02:57:33.071Z,100971.81
2017-09-24T03:00:01.021Z,100970.38
2017-09-24T03:02:28.497Z,100969.84
2017-09-24T03:04:55.963Z,100968.52
2017-09-24T03:07:23.433Z,100965.11
2017-09-24T03:09:50.887Z,100967.86
2017-09-24T03:12:18.365Z,100969.56
2017-09-24T03:14:45.819Z,100971.25
2017-09-24T03:17:13.301Z,100962.83
2017-09-24T03:19:40.751Z,100969.39
2017-09-24T03:22:08.223Z,100962.70
2017-09-24T03:24:35.671Z,100959.54
2017-09-24T03:27:03.157Z,100959.83
2017-09-24T03:29:30.609Z,100954.61
2017-09-24T03:31:58.079Z,100958.69
2017-09-24T03:34:25.565Z,100959.14
2017-09-24T03:36:53.103Z,100960.81
2017-09-24T03:39:20.560Z,100958.17
2017-09-24T03:41:48.108Z,100959.09
2017-09-24T03:44:15.564Z,100958.69
2017-09-24T03:46:43.075Z,100959.14
2017-09-24T03:49:10.533Z,100955.70
2017-09-24T03:51:38.027Z,100958.00
2017-09-24T03:54:05.595Z,100954.92
2017-09-24T03:56:33.074Z,100949.66
2017-09-24T03:59:00.531Z,100948.14
2017-09-24T04:01:28.067Z,100953.04
2017-09-24T04:03:55.548Z,100950.84
2017-09-24T04:06:23.017Z,100954.45
2017-09-24T04:08:50.512Z,100949.97
2017-09-24T04:11:17.963Z,100950.88
2017-09-24T04:13:45.543Z,100950.77
2017-09-24T04:16:13.005Z,100949.59
2017-09-24T04:18:40.479Z,100957.69
2017-09-24T04:21:07.935Z,100955.56
2017-09-24T04:23:35.399Z,100956.80
2017-09-24T04:26:02.928Z,100957.27
2017-09-24T04:28:30.404Z,100953.22
2017-09-24T04:30:57.944Z,100956.82
2017-09-24T04:33:25.410Z,100961.27
2017-09-24T04:35:52.973Z,100961.70
2017-09-24T04:38:20.456Z,100965.79
2017-09-24T04:40:47.928Z,100968.01
2017-09-24T04:43:15.399Z,100973.05
2017-09-24T04:45:42.855Z,100976.21
2017-09-24T04:48:10.352Z,100983.05
2017-09-24T04:50:37.816Z,100987.98
2017-09-24T04:53:05.310Z,100985.61
2017-09-24T04:55:32.776Z,100992.30
2017-09-24T04:58:00.258Z,100990.97
2017-09-24T05:00:27.771Z,100987.48
2017-09-24T05:02:55.219Z,100991.06
2017-09-24T05:05:22.704Z,100996.47
2017-09-24T05:07:50.168Z,100994.59
2017-09-24T05:10:17.657Z,100997.70
2017-09-24T05:12:45.137Z,101001.30
2017-09-24T05:15:12.623Z,100997.97
2017-09-24T05:17:40.096Z,100999.27
2017-09-24T05:20:07.577Z,101005.44
2017-09-24T05:22:35.037Z,101004.92
2017-09-24T05:25:02.512Z,101007.64
2017-09-24T05:27:30.003Z,101008.12
2017-09-24T05:29:57.513Z,101005.33
2017-09-24T05:32:24.971Z,101011.41
2017-09-24T05:34:52.478Z,101012.12
2017-09-24T05:37:19.997Z,101022.16
2017-09-24T05:39:47.462Z,101021.82
2017-09-24T05:42:14.976Z,101019.61
2017-09-24T05:44:42.460Z,101026.76
2017-09-24T05:47:09.919Z,101020.03
2017-09-24T05:49:37.404Z,101027.69
2017-09-24T05:52:04.953Z,101023.36
2017-09-24T05:54:32.444Z,101033.06
2017-09-24T05:56:59.954Z,101024.62
2017-09-24T05:59:27.443Z,101024.13
2017-09-24T06:01:54.966Z,101023.31
2017-09-24T06:04:22.432Z,101024.53
2017-09-24T06:06:49.947Z,101020.88
2017-09-24T06:09:17.437Z,101029.55
2017-09-24T06:11:44.916Z,101027.00
2017-09-24T06:14:12.394Z,101025.25
2017-09-24T06:16:39.873Z,101031.23
2017-09-24T06:19:07.329Z,101027.67
2017-09-24T06:21:34.820Z,101027.98
2017-09-24T06:24:02.284Z,101026.73
2017-09-24T06:26:29.840Z,101027.13
2017-09-24T06:28:57.303Z,101031.05
2017-09-24T06:31:24.792Z,101028.39
2017-09-24T06:33:52.303Z,101030.43
2017-09-24T06:36:19.776Z,101037.92
2017-09-24T06:38:47.240Z,101039.20
2017-09-24T06:41:14.711Z,101041.67
2017-09-24T06:43:42.163Z,101046.66
2017-09-24T06:46:09.636Z,101048.16
2017-09-24T06:48:37.097Z,101045.38
2017-09-24T06:51:04.571Z,101050.55
2017-09-24T06:53:32.023Z,101048.18
2017-09-24T06:55:59.509Z,101047.30
2017-09-24T06:58:26.992Z,101055.37
2017-09-24T07:00:54.479Z,101047.99
2017-09-24T07:03:21.938Z,101052.50
2017-09-24T07:05:49.427Z,101052.61
2017-09-24T07:08:16.885Z,101054.76
2017-09-24T07:10:44.339Z,101054.44
2017-09-24T07:13:11.811Z,101054.78
2017-09-24T07:15:39.272Z,101061.45
2017-09-24T07:18:06.776Z,101061.70
2017-09-24T07:20:34.237Z,101063.27
2017-09-24T07:23:01.745Z,101065.73
2017-09-24T07:25:29.225Z,101071.05
2017-09-24T07:27:56.711Z,101081.94
2017-09-24T07:30:24.172Z,101083.09
2017-09-24T07:32:51.647Z,101077.78
2017-09-24T07:35:19.099Z,101087.09
2017-09-24T07:37:46.577Z,101082.36
2017-09-24T07:40:14.040Z,101078.24
2017-09-24T07:42:41.524Z,101082.88
2017-09-24T07:45:08.984Z,101071.37
2017-09-24T07:47:36.459Z,101071.84
2017-09-24T07:50:03.916Z,101070.84
2017-09-24T07:52:31.391Z,101063.55
2017-09-24T07:54:58.877Z,101068.44
2017-09-24T07:57:26.373Z,101067.73
2017-09-24T07:59:53.832Z,101065.95
2017-09-24T08:02:21.301Z,101063.16
2017-09-24T08:04:48.807Z,101066.12
2017-09-24T08:07:16.265Z,101063.81
2017-09-24T08:09:43.748Z,101065.91
2017-09-24T08:12:11.283Z,101060.70
2017-09-24T08:14:38.839Z,101058.02
2017-09-24T08:17:06.300Z,101060.33
2017-09-24T08:19:33.861Z,101073.55
2017-09-24T08:22:01.332Z,101063.13
2017-09-24T08:24:28.817Z,101058.99
2017-09-24T08:26:56.272Z,101063.03
2017-09-24T08:29:23.739Z,101062.18
2017-09-24T08:31:51.200Z,101062.58
2017-09-24T08:34:18.697Z,101062.88
2017-09-24T08:36:46.183Z,101068.70
2017-09-24T08:39:13.709Z,101064.34
2017-09-24T08:41:41.271Z,101071.77
2017-09-24T08:44:08.786Z,101065.44
2017-09-24T08:46:36.243Z,101059.41
2017-09-24T08:49:03.729Z,101061.79
2017-09-24T08:51:31.186Z,101057.44
2017-09-24T08:53:58.671Z,101055.63
2017-09-24T08:56:26.225Z,101060.01
2017-09-24T08:58:53.768Z,101053.28
2017-09-24T09:01:21.249Z,101050.28
2017-09-24T09:03:48.791Z,101054.84
2017-09-24T09:06:16.272Z,101053.21
2017-09-24T09:08:43.747Z,101052.15
2017-09-24T09:11:11.259Z,101058.66
2017-09-24T09:13:38.713Z,101051.09
2017-09-24T09:16:06.190Z,101046.89
2017-09-24T09:18:33.734Z,101045.24
2017-09-24T09:21:01.220Z,101039.20
2017-09-24T09:23:28.679Z,101041.16
2017-09-24T09:25:56.205Z,101045.41
2017-09-24T09:28:23.660Z,101042.56
2017-09-24T09:30:51.223Z,101043.97
2017-09-24T09:33:21.427Z,101041.55
2017-09-24T09:35:48.908Z,101046.53
2017-09-24T09:38:16.403Z,101044.07
2017-09-24T09:40:43.896Z,101040.06
2017-09-24T09:43:11.367Z,101040.17
2017-09-24T09:45:50.731Z,101038.17
2017-09-24T09:48:18.209Z,101037.02
2017-09-24T09:50:45.695Z,101037.92
2017-09-24T09:53:13.164Z,101039.02
2017-09-24T09:55:40.644Z,101032.03
2017-09-24T09:58:08.188Z,101026.55
2017-09-24T10:00:35.749Z,101030.63
2017-09-24T10:03:03.224Z,101029.49
2017-09-24T10:05:30.775Z,101025.04
2017-09-24T10:08:10.197Z,101024.34
2017-09-24T10:10:37.684Z,101019.75
2017-09-24T10:13:05.143Z,101022.27
2017-09-24T10:15:32.647Z,101015.63
2017-09-24T10:18:00.103Z,101020.66
2017-09-24T10:20:27.595Z,101022.39
2017-09-24T10:22:55.256Z,101018.23
2017-09-24T10:25:22.752Z,101013.94
2017-09-24T10:30:28.601Z,101009.59
2017-09-24T10:32:56.063Z,101009.48
2017-09-24T10:35:23.519Z,101005.75
2017-09-24T10:37:51.002Z,101003.94
2017-09-24T10:40:18.472Z,101013.56
2017-09-24T10:42:45.942Z,101002.45
2017-09-24T10:45:13.394Z,101007.56
2017-09-24T10:47:40.881Z,101006.33
2017-09-24T10:50:08.340Z,101005.11
2017-09-24T10:52:35.819Z,101003.90
2017-09-24T10:55:03.286Z,101000.56
2017-09-24T10:57:30.779Z,100998.78
2017-09-24T10:59:58.235Z,100997.78
2017-09-24T11:02:25.709Z,100999.66
2017-09-24T11:04:53.167Z,100999.09
2017-09-24T11:07:20.748Z,100989.68
2017-09-24T11:09:48.221Z,100992.30
2017-09-24T11:12:15.738Z,100999.59
2017-09-24T11:14:43.196Z,100999.30
2017-09-24T11:17:10.671Z,100997.98
2017-09-24T11:19:38.136Z,101000.91
2017-09-24T11:22:05.615Z,100999.55
2017-09-24T11:24:33.077Z,100988.95
2017-09-24T11:27:00.571Z,100988.43
2017-09-24T11:29:28.027Z,100987.86
2017-09-24T11:31:55.503Z,100987.66
2017-09-24T11:34:23.087Z,100991.58
2017-09-24T11:36:50.611Z,100996.73
2017-09-24T11:39:18.072Z,100994.73
2017-09-24T11:41:45.543Z,100982.86
2017-09-24T11:44:12.996Z,100986.80
2017-09-24T11:46:40.553Z,100988.91
2017-09-24T11:49:08.097Z,100980.95
2017-09-24T11:51:35.579Z,100986.42
2017-09-24T11:54:03.125Z,100989.41
2017-09-24T11:56:30.622Z,100983.82
2017-09-24T11:58:58.076Z,100985.73
2017-09-24T12:01:25.561Z,100982.25
2017-09-24T12:03:53.019Z,100981.99
2017-09-24T12:06:20.485Z,100984.41
2017-09-24T12:08:48.064Z,100980.11
2017-09-24T12:11:15.524Z,100982.87
2017-09-24T12:13:43.114Z,100980.77
2017-09-24T12:16:10.631Z,100982.61
2017-09-24T12:18:38.192Z,100977.85
2017-09-24T12:21:05.670Z,100983.27
2017-09-24T12:23:33.154Z,100987.42
2017-09-24T12:26:00.616Z,100990.86
2017-09-24T12:28:28.117Z,100992.08
2017-09-24T12:30:55.580Z,100990.09
2017-09-24T12:33:23.066Z,100989.64
2017-09-24T12:35:50.601Z,100998.52
2017-09-24T12:38:18.075Z,100986.08
2017-09-24T12:40:45.541Z,100990.76
2017-09-24T12:43:13.073Z,100993.30
2017-09-24T12:45:40.550Z,100992.83
2017-09-24T12:48:08.041Z,100989.47
2017-09-24T12:50:35.514Z,100985.30
2017-09-24T12:53:02.990Z,100987.67
2017-09-24T12:55:30.460Z,100983.91
2017-09-24T12:57:58.015Z,100988.59
2017-09-24T13:00:25.480Z,100984.03
2017-09-24T13:02:52.974Z,100989.08
2017-09-24T13:05:20.460Z,100987.36
2017-09-24T13:07:47.920Z,100982.70
2017-09-24T13:10:15.408Z,100981.50
2017-09-24T13:12:42.899Z,100980.80
2017-09-24T13:15:10.384Z,100982.16
2017-09-24T13:17:37.913Z,100983.53
2017-09-24T13:20:05.404Z,100975.83
2017-09-24T13:22:32.877Z,100974.05
2017-09-24T13:25:00.389Z,100972.56
2017-09-24T13:27:27.855Z,100966.61
2017-09-24T13:29:55.358Z,100972.90
2017-09-24T13:32:22.822Z,100975.84
2017-09-24T13:34:50.295Z,100971.20
2017-09-24T13:37:17.747Z,100974.94
2017-09-24T13:39:45.247Z,100975.38
2017-09-24T13:42:12.733Z,100965.83
2017-09-24T13:44:40.243Z,100971.30
2017-09-24T13:47:07.704Z,100959.81
2017-09-24T13:49:35.188Z,100959.61
2017-09-24T13:52:02.664Z,100962.59
2017-09-24T13:54:30.232Z,100963.02
2017-09-24T13:56:57.700Z,100971.42
2017-09-24T13:59:25.247Z,100964.95
2017-09-24T14:01:52.747Z,100963.77
2017-09-24T14:04:20.211Z,100972.49
2017-09-24T14:06:47.687Z,100965.47
2017-09-24T14:09:15.143Z,100970.16
2017-09-24T14:11:42.674Z,100964.12
2017-09-24T14:14:10.141Z,100965.55
2017-09-24T14:16:37.635Z,100970.13
2017-09-24T14:19:05.115Z,100957.25
2017-09-24T14:21:32.587Z,100961.30
2017-09-24T14:24:00.047Z,100962.60
2017-09-24T14:26:27.524Z,100960.51
2017-09-24T14:28:55.037Z,100966.38
2017-09-24T14:31:22.513Z,100954.45
2017-09-24T14:33:50.025Z,100956.25
2017-09-24T14:36:17.495Z,100960.95
2017-09-24T14:38:45.068Z,100963.59
2017-09-24T14:41:12.570Z,100961.48
2017-09-24T14:43:40.075Z,100957.42
2017-09-24T14:46:07.678Z,100957.61
2017-09-24T14:48:35.148Z,100963.42
2017-09-24T14:51:02.604Z,100961.50
2017-09-24T14:53:30.098Z,100958.11
2017-09-24T14:55:57.657Z,100961.89
2017-09-24T14:58:25.132Z,100958.80
2017-09-24T15:00:52.601Z,100952.45
2017-09-24T15:03:20.187Z,100950.16
2017-09-24T15:05:47.643Z,100949.09
2017-09-24T15:08:15.142Z,100950.23
2017-09-24T15:10:42.610Z,100947.64
2017-09-24T15:13:10.084Z,100942.61
2017-09-24T15:15:37.541Z,100947.98
2017-09-24T15:18:05.026Z,100947.47
2017-09-24T15:20:32.534Z,100953.86
2017-09-24T15:23:00.019Z,100954.52
2017-09-24T15:25:27.478Z,100960.65
2017-09-24T15:27:54.956Z,100954.09
2017-09-24T15:30:22.476Z,100949.64
2017-09-24T15:32:49.951Z,100951.64
2017-09-24T15:35:17.470Z,100955.72
2017-09-24T15:37:44.940Z,100959.25
2017-09-24T15:40:12.395Z,100955.34
2017-09-24T15:42:39.951Z,100962.08
2017-09-24T15:45:07.440Z,100957.12
2017-09-24T15:47:34.919Z,100961.09
2017-09-24T15:50:02.374Z,100951.95
2017-09-24T15:52:29.837Z,100951.59
2017-09-24T15:54:57.328Z,100957.94
2017-09-24T15:57:24.784Z,100953.72
2017-09-24T15:59:52.291Z,100955.16
2017-09-24T16:02:19.752Z,100959.78
2017-09-24T16:04:47.263Z,100955.47
2017-09-24T16:07:14.748Z,100955.52
2017-09-24T16:09:42.229Z,100949.91
2017-09-24T16:12:09.707Z,100954.39
2017-09-24T16:14:37.184Z,100951.13
2017-09-24T16:17:04.645Z,100957.86
2017-09-24T16:19:32.124Z,100956.48
2017-09-24T16:21:59.588Z,100965.77
2017-09-24T16:24:27.115Z,100955.69
2017-09-24T16:26:54.576Z,100957.41
2017-09-24T16:29:22.078Z,100963.10
2017-09-24T16:31:49.583Z,100965.50
2017-09-24T16:34:17.064Z,100960.05
2017-09-24T16:36:44.527Z,100959.81
2017-09-24T16:39:12.009Z,100962.67
2017-09-24T16:41:39.472Z,100974.92
2017-09-24T16:44:06.981Z,100963.02
2017-09-24T16:46:34.502Z,100963.97
2017-09-24T16:49:01.978Z,100964.45
2017-09-24T16:51:29.468Z,100969.13
2017-09-24T16:53:56.960Z,100974.55
2017-09-24T16:56:24.427Z,100973.94
2017-09-24T16:58:51.915Z,100976.92
2017-09-24T17:01:19.373Z,100978.14
2017-09-24T17:03:46.858Z,100974.15
2017-09-24T17:06:14.321Z,100976.37
2017-09-24T17:08:41.824Z,100978.87
2017-09-24T17:11:09.333Z,100967.03
2017-09-24T17:13:36.803Z,100976.59
2017-09-24T17:16:04.289Z,100978.27
2017-09-24T17:18:31.780Z,100980.89
2017-09-24T17:20:59.344Z,100976.48
2017-09-24T17:23:26.803Z,100976.11
2017-09-24T17:25:54.307Z,100977.97
2017-09-24T17:28:21.780Z,100976.74
2017-09-24T17:30:49.275Z,100979.47
2017-09-24T17:33:16.735Z,100978.43
2017-09-24T17:35:44.287Z,100979.09
2017-09-24T17:38:11.842Z,100978.41
2017-09-24T17:40:39.399Z,100980.79
2017-09-24T17:43:06.862Z,100975.19
2017-09-24T17:45:34.350Z,100973.99
2017-09-24T17:48:01.854Z,100980.67
2017-09-24T17:50:29.324Z,100975.55
2017-09-24T17:52:56.881Z,100976.40
2017-09-24T17:55:24.380Z,100973.52
2017-09-24T17:57:51.849Z,100980.45
2017-09-24T18:00:19.328Z,100973.06
2017-09-24T18:02:46.844Z,100977.20
2017-09-24T18:05:14.331Z,100977.83
2017-09-24T18:07:41.784Z,100981.73
2017-09-24T18:10:09.279Z,100980.33
2017-09-24T18:12:36.781Z,100983.91
2017-09-24T18:15:04.269Z,100980.80
2017-09-24T18:17:31.751Z,100986.83
2017-09-24T18:19:59.313Z,100990.38
2017-09-24T18:22:26.872Z,100989.67
2017-09-24T18:24:54.338Z,100987.32
2017-09-24T18:27:21.878Z,100988.02
2017-09-24T18:29:49.345Z,100993.58
2017-09-24T18:32:16.837Z,100989.71
2017-09-24T18:34:44.356Z,101004.89
2017-09-24T18:37:11.848Z,100997.39
2017-09-24T18:39:39.304Z,101004.03
2017-09-24T18:42:06.787Z,101006.45
2017-09-24T18:44:34.250Z,101005.30
2017-09-24T18:47:01.849Z,101004.98
2017-09-24T18:49:29.327Z,101008.27
2017-09-24T18:51:56.792Z,101007.69
2017-09-24T18:54:24.267Z,101009.25
2017-09-24T18:56:51.724Z,101017.08
2017-09-24T18:59:19.209Z,101014.95
2017-09-24T19:01:46.680Z,101019.77
2017-09-24T19:04:14.247Z,101017.55
2017-09-24T19:06:41.720Z,101023.45
2017-09-24T19:09:09.252Z,101019.08
2017-09-24T19:11:36.708Z,101017.70
2017-09-24T19:14:04.188Z,101015.90
2017-09-24T19:16:31.664Z,101014.95
2017-09-24T19:18:59.147Z,101020.56
2017-09-24T19:21:26.616Z,101017.40
2017-09-24T19:23:54.125Z,101017.81
2017-09-24T19:26:21.584Z,101016.16
2017-09-24T19:28:49.044Z,101012.66
2017-09-24T19:31:16.529Z,101012.17
2017-09-24T19:33:43.985Z,101017.25
2017-09-24T19:36:11.468Z,101022.42
2017-09-24T19:38:39.050Z,101015.75
2017-09-24T19:41:06.528Z,101019.87
2017-09-24T19:43:34.082Z,101020.09
2017-09-24T19:46:01.573Z,101022.12
2017-09-24T19:48:29.086Z,101026.20
2017-09-24T19:50:56.628Z,101019.86
2017-09-24T19:53:24.112Z,101026.39
2017-09-24T19:55:51.600Z,101026.30
2017-09-24T19:58:19.059Z,101024.84
2017-09-24T20:00:46.543Z,101025.11
2017-09-24T20:03:14.005Z,101030.77
2017-09-24T20:05:41.519Z,101027.64
2017-09-24T20:08:08.996Z,101027.11
2017-09-24T20:10:36.481Z,101030.02
2017-09-24T20:13:03.955Z,101031.95
2017-09-24T20:15:31.496Z,101032.13
2017-09-24T20:17:58.974Z,101036.13
2017-09-24T20:20:26.514Z,101035.62
2017-09-24T20:22:53.999Z,101034.19
2017-09-24T20:25:21.490Z,101036.50
2017-09-24T20:27:48.952Z,101035.77
2017-09-24T20:30:16.437Z,101034.41
2017-09-24T20:32:43.907Z,101038.52
2017-09-24T20:35:11.388Z,101042.07
2017-09-24T20:37:38.862Z,101043.97
2017-09-24T20:40:06.349Z,101042.23
2017-09-24T20:42:33.860Z,101043.69
2017-09-24T20:45:01.405Z,101042.79
2017-09-24T20:47:28.876Z,101038.36
2017-09-24T20:49:56.356Z,101033.09
2017-09-24T20:52:23.819Z,101040.06
2017-09-24T20:54:51.298Z,101038.05
2017-09-24T20:57:18.751Z,101038.88
2017-09-24T20:59:46.216Z,101044.16
2017-09-24T21:02:13.701Z,101040.17
2017-09-24T21:04:41.172Z,101045.95
2017-09-24T21:07:08.699Z,101036.31
2017-09-24T21:09:36.166Z,101047.48
2017-09-24T21:12:03.666Z,101043.36
2017-09-24T21:14:31.137Z,101038.41
2017-09-24T21:16:58.620Z,101042.07
2017-09-24T21:19:26.083Z,101040.73
2017-09-24T21:21:53.561Z,101044.66
2017-09-24T21:24:21.035Z,101046.36
2017-09-24T21:26:48.546Z,101049.73
2017-09-24T21:29:16.011Z,101052.73
2017-09-24T21:31:43.496Z,101057.55
2017-09-24T21:34:10.951Z,101052.66
2017-09-24T21:36:38.432Z,101052.80
2017-09-24T21:39:05.905Z,101052.57
2017-09-24T21:41:33.385Z,101047.27
2017-09-24T21:44:00.838Z,101053.23
2017-09-24T21:46:28.320Z,101035.44
2017-09-24T21:48:55.828Z,101039.42
2017-09-24T21:51:23.334Z,101039.34
2017-09-24T21:53:50.829Z,101038.32
2017-09-24T21:56:18.287Z,101038.34
2017-09-24T21:58:45.778Z,101044.03
2017-09-24T22:01:13.264Z,101041.84
2017-09-24T22:03:40.747Z,101044.66
2017-09-24T22:06:08.199Z,101040.74
2017-09-24T22:08:36.561Z,101037.43
2017-09-24T22:11:04.097Z,101036.11
2017-09-24T22:13:32.452Z,101038.38
2017-09-24T22:15:59.919Z,101044.30
2017-09-24T22:18:27.428Z,101038.22
2017-09-24T22:20:54.892Z,101041.86
2017-09-24T22:23:22.392Z,101044.13
2017-09-24T22:25:49.851Z,101042.81
2017-09-24T22:28:17.344Z,101041.17
2017-09-24T22:30:44.816Z,101032.45
2017-09-24T22:33:12.296Z,101040.65
2017-09-24T22:35:39.751Z,101042.73
2017-09-24T22:38:07.264Z,101034.00
2017-09-24T22:40:34.723Z,101037.13
2017-09-24T22:43:02.254Z,101031.95
2017-09-24T22:45:29.706Z,101027.97
2017-09-24T22:47:57.324Z,101030.73
2017-09-24T22:50:24.792Z,101025.41
2017-09-24T22:52:52.271Z,101035.36
2017-09-24T22:55:19.736Z,101031.42
2017-09-24T22:57:47.219Z,101021.93
2017-09-24T23:00:14.768Z,101018.66
2017-09-24T23:02:42.324Z,101021.04
2017-09-24T23:05:09.781Z,101021.16
2017-09-24T23:07:37.239Z,101016.78
2017-09-24T23:10:04.733Z,101018.28
2017-09-24T23:12:32.257Z,101017.38
2017-09-24T23:14:59.738Z,101018.52
2017-09-24T23:17:27.212Z,101011.58
2017-09-24T23:19:54.707Z,101008.44
2017-09-24T23:22:22.184Z,101009.52
2017-09-24T23:24:49.667Z,101010.46
2017-09-24T23:27:17.331Z,101009.09
2017-09-24T23:29:44.807Z,101010.64
2017-09-24T23:32:12.348Z,101005.20
2017-09-24T23:34:39.823Z,100999.53
2017-09-24T23:37:07.291Z,101001.00
2017-09-24T23:39:34.768Z,101004.20
2017-09-24T23:42:02.217Z,100995.82
2017-09-24T23:44:29.692Z,101002.78
2017-09-24T23:46:57.276Z,101006.52
2017-09-24T23:49:24.820Z,100998.15
2017-09-24T23:51:52.280Z,100996.05
2017-09-24T23:54:19.783Z,100992.57
2017-09-24T23:56:47.240Z,100982.15
2017-09-24T23:59:14.732Z,100990.73
